sensor_id;sensor_type;location;lat;lon;timestamp;temperature;humidity
46378;DHT22;32083;47.360;9.650;2022-09-09T04:02:49;16.50;97.50
46378;DHT22;32083;47.360;9.650;2022-09-09T04:05:15;16.50;97.50
46378;DHT22;32083;47.360;9.650;2022-09-09T04:07:41;16.30;98.10
46378;DHT22;32083;47.360;9.650;2022-09-09T04:10:07;16.30;98.30
46378;DHT22;32083;47.360;9.650;2022-09-09T04:12:34;16.40;98.40
46378;DHT22;32083;47.360;9.650;2022-09-09T04:15:00;16.40;98.40
46378;DHT22;32083;47.360;9.650;2022-09-09T04:17:27;16.40;98.40
46378;DHT22;32083;47.360;9.650;2022-09-09T04:19:53;16.50;98.40
46378;DHT22;32083;47.360;9.650;2022-09-09T04:22:19;16.40;98.50
46378;DHT22;32083;47.360;9.650;2022-09-09T04:24:45;16.30;98.80
46378;DHT22;32083;47.360;9.650;2022-09-09T04:27:11;16.30;98.70
46378;DHT22;32083;47.360;9.650;2022-09-09T04:29:37;16.30;98.60
46378;DHT22;32083;47.360;9.650;2022-09-09T04:32:03;16.30;98.50
46378;DHT22;32083;47.360;9.650;2022-09-09T04:34:30;16.50;98.40
46378;DHT22;32083;47.360;9.650;2022-09-09T04:36:57;16.40;98.30
46378;DHT22;32083;47.360;9.650;2022-09-09T04:39:23;16.50;98.30
46378;DHT22;32083;47.360;9.650;2022-09-09T04:41:49;16.40;98.40
46378;DHT22;32083;47.360;9.650;2022-09-09T04:44:15;16.50;98.30
46378;DHT22;32083;47.360;9.650;2022-09-09T04:46:41;16.50;98.20
46378;DHT22;32083;47.360;9.650;2022-09-09T04:49:07;16.50;98.00
46378;DHT22;32083;47.360;9.650;2022-09-09T04:51:33;16.50;97.80
46378;DHT22;32083;47.360;9.650;2022-09-09T04:53:59;16.50;97.60
46378;DHT22;32083;47.360;9.650;2022-09-09T04:56:25;16.50;97.60
46378;DHT22;32083;47.360;9.650;2022-09-09T04:58:52;16.40;97.30
46378;DHT22;32083;47.360;9.650;2022-09-09T05:01:20;16.50;97.20
46378;DHT22;32083;47.360;9.650;2022-09-09T05:03:50;16.60;96.70
46378;DHT22;32083;47.360;9.650;2022-09-09T05:06:19;16.70;96.50
46378;DHT22;32083;47.360;9.650;2022-09-09T05:08:45;16.70;96.10
46378;DHT22;32083;47.360;9.650;2022-09-09T05:11:23;16.80;95.70
46378;DHT22;32083;47.360;9.650;2022-09-09T05:13:50;16.90;95.40
46378;DHT22;32083;47.360;9.650;2022-09-09T05:16:17;17.00;95.30
46378;DHT22;32083;47.360;9.650;2022-09-09T05:18:44;17.00;95.10
46378;DHT22;32083;47.360;9.650;2022-09-09T05:21:11;17.10;95.00
46378;DHT22;32083;47.360;9.650;2022-09-09T05:23:38;17.10;95.00
46378;DHT22;32083;47.360;9.650;2022-09-09T05:26:05;17.10;94.50
46378;DHT22;32083;47.360;9.650;2022-09-09T05:28:35;17.10;94.40
46378;DHT22;32083;47.360;9.650;2022-09-09T05:31:04;17.10;94.30
46378;DHT22;32083;47.360;9.650;2022-09-09T05:33:31;17.00;94.30
46378;DHT22;32083;47.360;9.650;2022-09-09T05:36:06;17.00;94.30
46378;DHT22;32083;47.360;9.650;2022-09-09T05:38:34;16.90;94.60
46378;DHT22;32083;47.360;9.650;2022-09-09T05:41:01;16.80;94.20
46378;DHT22;32083;47.360;9.650;2022-09-09T05:43:28;16.90;94.30
46378;DHT22;32083;47.360;9.650;2022-09-09T05:46:09;16.80;94.30
46378;DHT22;32083;47.360;9.650;2022-09-09T05:48:37;16.90;94.20
46378;DHT22;32083;47.360;9.650;2022-09-09T05:51:05;16.90;94.20
46378;DHT22;32083;47.360;9.650;2022-09-09T05:53:34;16.90;94.20
46378;DHT22;32083;47.360;9.650;2022-09-09T05:56:05;16.90;94.10
46378;DHT22;32083;47.360;9.650;2022-09-09T05:58:32;16.90;94.10
46378;DHT22;32083;47.360;9.650;2022-09-09T06:01:07;16.90;94.10
46378;DHT22;32083;47.360;9.650;2022-09-09T06:03:38;17.00;94.00
46378;DHT22;32083;47.360;9.650;2022-09-09T06:06:07;17.00;94.10
46378;DHT22;32083;47.360;9.650;2022-09-09T06:08:34;17.00;94.10
46378;DHT22;32083;47.360;9.650;2022-09-09T06:11:18;17.10;94.30
46378;DHT22;32083;47.360;9.650;2022-09-09T06:13:44;17.10;93.90
46378;DHT22;32083;47.360;9.650;2022-09-09T06:16:14;17.10;93.80
46378;DHT22;32083;47.360;9.650;2022-09-09T06:18:41;17.20;93.70
46378;DHT22;32083;47.360;9.650;2022-09-09T06:21:16;17.20;93.60
46378;DHT22;32083;47.360;9.650;2022-09-09T06:23:42;17.30;93.50
46378;DHT22;32083;47.360;9.650;2022-09-09T06:28:38;17.40;93.80
46378;DHT22;32083;47.360;9.650;2022-09-09T06:31:07;17.40;93.50
46378;DHT22;32083;47.360;9.650;2022-09-09T06:33:39;17.30;93.90
46378;DHT22;32083;47.360;9.650;2022-09-09T06:36:11;17.30;93.80
46378;DHT22;32083;47.360;9.650;2022-09-09T06:38:37;17.40;93.70
46378;DHT22;32083;47.360;9.650;2022-09-09T06:41:04;17.40;93.80
46378;DHT22;32083;47.360;9.650;2022-09-09T06:43:31;17.40;93.70
46378;DHT22;32083;47.360;9.650;2022-09-09T06:46:21;17.40;94.10
46378;DHT22;32083;47.360;9.650;2022-09-09T06:48:54;17.40;94.10
46378;DHT22;32083;47.360;9.650;2022-09-09T06:51:23;17.40;94.10
46378;DHT22;32083;47.360;9.650;2022-09-09T06:53:55;17.40;94.20
46378;DHT22;32083;47.360;9.650;2022-09-09T06:56:34;17.40;94.30
46378;DHT22;32083;47.360;9.650;2022-09-09T06:59:02;17.40;94.60
46378;DHT22;32083;47.360;9.650;2022-09-09T07:01:32;17.40;94.70
46378;DHT22;32083;47.360;9.650;2022-09-09T07:03:59;17.50;94.80
46378;DHT22;32083;47.360;9.650;2022-09-09T07:06:30;17.40;94.90
46378;DHT22;32083;47.360;9.650;2022-09-09T07:08:59;17.40;95.10
46378;DHT22;32083;47.360;9.650;2022-09-09T07:11:30;17.50;95.20
46378;DHT22;32083;47.360;9.650;2022-09-09T07:13:58;17.50;94.90
46378;DHT22;32083;47.360;9.650;2022-09-09T07:16:24;17.50;95.10
46378;DHT22;32083;47.360;9.650;2022-09-09T07:18:52;17.60;95.20
46378;DHT22;32083;47.360;9.650;2022-09-09T07:21:19;17.60;94.70
46378;DHT22;32083;47.360;9.650;2022-09-09T07:23:46;17.60;94.70
46378;DHT22;32083;47.360;9.650;2022-09-09T07:26:15;17.60;94.60
46378;DHT22;32083;47.360;9.650;2022-09-09T07:28:42;17.70;94.60
46378;DHT22;32083;47.360;9.650;2022-09-09T07:31:14;17.60;94.70
46378;DHT22;32083;47.360;9.650;2022-09-09T07:33:43;17.60;94.80
46378;DHT22;32083;47.360;9.650;2022-09-09T07:38:39;17.70;94.50
46378;DHT22;32083;47.360;9.650;2022-09-09T07:41:08;17.70;94.50
46378;DHT22;32083;47.360;9.650;2022-09-09T07:43:45;17.60;94.60
46378;DHT22;32083;47.360;9.650;2022-09-09T07:46:13;17.60;94.60
46378;DHT22;32083;47.360;9.650;2022-09-09T07:48:45;17.70;94.60
46378;DHT22;32083;47.360;9.650;2022-09-09T07:51:13;17.70;94.80
46378;DHT22;32083;47.360;9.650;2022-09-09T07:53:44;17.60;94.60
46378;DHT22;32083;47.360;9.650;2022-09-09T07:56:13;17.60;95.00
46378;DHT22;32083;47.360;9.650;2022-09-09T07:58:40;17.60;95.10
46378;DHT22;32083;47.360;9.650;2022-09-09T08:01:15;17.70;95.10
46378;DHT22;32083;47.360;9.650;2022-09-09T08:03:44;17.60;94.90
46378;DHT22;32083;47.360;9.650;2022-09-09T08:06:10;17.60;95.10
46378;DHT22;32083;47.360;9.650;2022-09-09T08:08:38;17.60;95.10
46378;DHT22;32083;47.360;9.650;2022-09-09T08:11:14;17.60;95.10
46378;DHT22;32083;47.360;9.650;2022-09-09T08:13:41;17.60;95.20
46378;DHT22;32083;47.360;9.650;2022-09-09T08:16:43;17.60;95.40
46378;DHT22;32083;47.360;9.650;2022-09-09T08:19:02;17.60;95.50
46378;DHT22;32083;47.360;9.650;2022-09-09T08:21:31;17.50;95.90
46378;DHT22;32083;47.360;9.650;2022-09-09T08:23:58;17.60;95.70
46378;DHT22;32083;47.360;9.650;2022-09-09T08:26:27;17.60;95.60
46378;DHT22;32083;47.360;9.650;2022-09-09T08:28:58;17.50;95.80
46378;DHT22;32083;47.360;9.650;2022-09-09T08:31:39;17.50;96.30
46378;DHT22;32083;47.360;9.650;2022-09-09T08:34:06;17.50;96.50
46378;DHT22;32083;47.360;9.650;2022-09-09T08:36:38;17.40;96.60
46378;DHT22;32083;47.360;9.650;2022-09-09T08:39:05;17.30;96.60
46378;DHT22;32083;47.360;9.650;2022-09-09T08:42:06;17.40;97.10
46378;DHT22;32083;47.360;9.650;2022-09-09T08:48:36;17.20;97.90
46378;DHT22;32083;47.360;9.650;2022-09-09T08:51:03;17.20;97.80
46378;DHT22;32083;47.360;9.650;2022-09-09T08:53:43;17.20;98.00
46378;DHT22;32083;47.360;9.650;2022-09-09T08:56:14;17.20;98.50
46378;DHT22;32083;47.360;9.650;2022-09-09T08:58:50;17.20;98.20
46378;DHT22;32083;47.360;9.650;2022-09-09T09:04:04;17.20;97.90
46378;DHT22;32083;47.360;9.650;2022-09-09T09:11:51;17.00;98.90
46378;DHT22;32083;47.360;9.650;2022-09-09T09:17:00;16.90;99.00
46378;DHT22;32083;47.360;9.650;2022-09-09T09:19:29;16.90;99.00
46378;DHT22;32083;47.360;9.650;2022-09-09T09:30:20;16.70;99.00
46378;DHT22;32083;47.360;9.650;2022-09-09T09:35:18;16.70;98.90
46378;DHT22;32083;47.360;9.650;2022-09-09T09:37:44;16.80;98.80
46378;DHT22;32083;47.360;9.650;2022-09-09T09:40:16;16.80;98.80
46378;DHT22;32083;47.360;9.650;2022-09-09T09:45:43;16.80;99.20
46378;DHT22;32083;47.360;9.650;2022-09-09T09:48:14;16.90;99.40
46378;DHT22;32083;47.360;9.650;2022-09-09T09:51:08;17.00;99.70
46378;DHT22;32083;47.360;9.650;2022-09-09T09:53:37;17.10;99.10
46378;DHT22;32083;47.360;9.650;2022-09-09T09:56:06;17.20;99.30
46378;DHT22;32083;47.360;9.650;2022-09-09T10:01:04;17.30;99.00
46378;DHT22;32083;47.360;9.650;2022-09-09T10:03:33;17.40;98.80
46378;DHT22;32083;47.360;9.650;2022-09-09T10:06:05;17.60;99.20
46378;DHT22;32083;47.360;9.650;2022-09-09T10:08:43;17.70;99.10
46378;DHT22;32083;47.360;9.650;2022-09-09T10:22:46;18.00;98.00
46378;DHT22;32083;47.360;9.650;2022-09-09T10:31:06;18.10;98.30
46378;DHT22;32083;47.360;9.650;2022-09-09T10:33:44;18.10;97.70
46378;DHT22;32083;47.360;9.650;2022-09-09T10:36:25;18.10;97.70
46378;DHT22;32083;47.360;9.650;2022-09-09T10:42:07;18.20;97.70
46378;DHT22;32083;47.360;9.650;2022-09-09T10:47:39;18.20;97.40
46378;DHT22;32083;47.360;9.650;2022-09-09T10:56:16;18.40;98.10
46378;DHT22;32083;47.360;9.650;2022-09-09T10:58:55;18.50;96.80
46378;DHT22;32083;47.360;9.650;2022-09-09T11:04:53;18.80;97.40
46378;DHT22;32083;47.360;9.650;2022-09-09T11:07:05;18.90;96.70
46378;DHT22;32083;47.360;9.650;2022-09-09T11:09:43;18.90;96.90
46378;DHT22;32083;47.360;9.650;2022-09-09T11:12:18;19.00;96.40
46378;DHT22;32083;47.360;9.650;2022-09-09T11:17:44;19.00;96.20
46378;DHT22;32083;47.360;9.650;2022-09-09T11:20:13;19.00;96.90
46378;DHT22;32083;47.360;9.650;2022-09-09T11:22:58;19.10;96.60
46378;DHT22;32083;47.360;9.650;2022-09-09T11:25:37;19.20;96.10
46378;DHT22;32083;47.360;9.650;2022-09-09T11:28:31;19.20;96.70
46378;DHT22;32083;47.360;9.650;2022-09-09T11:42:34;19.70;95.80
46378;DHT22;32083;47.360;9.650;2022-09-09T11:45:22;19.90;95.30
46378;DHT22;32083;47.360;9.650;2022-09-09T11:48:03;20.10;94.70
46378;DHT22;32083;47.360;9.650;2022-09-09T11:50:36;20.10;94.10
46378;DHT22;32083;47.360;9.650;2022-09-09T11:55:33;19.80;93.50
46378;DHT22;32083;47.360;9.650;2022-09-09T11:58:16;19.80;93.70
46378;DHT22;32083;47.360;9.650;2022-09-09T12:00:48;19.60;94.30
46378;DHT22;32083;47.360;9.650;2022-09-09T12:06:26;19.40;93.60
46378;DHT22;32083;47.360;9.650;2022-09-09T12:09:06;19.30;94.20
46378;DHT22;32083;47.360;9.650;2022-09-09T12:11:33;19.30;94.40
46378;DHT22;32083;47.360;9.650;2022-09-09T12:14:01;19.30;94.90
46378;DHT22;32083;47.360;9.650;2022-09-09T12:16:30;19.30;94.50
46378;DHT22;32083;47.360;9.650;2022-09-09T12:19:13;19.30;95.00
46378;DHT22;32083;47.360;9.650;2022-09-09T12:22:04;19.40;95.30
46378;DHT22;32083;47.360;9.650;2022-09-09T12:29:55;19.60;94.70
46378;DHT22;32083;47.360;9.650;2022-09-09T12:32:26;19.70;94.80
46378;DHT22;32083;47.360;9.650;2022-09-09T12:35:02;19.60;92.60
46378;DHT22;32083;47.360;9.650;2022-09-09T12:40:01;19.60;90.30
46378;DHT22;32083;47.360;9.650;2022-09-09T12:42:29;19.70;89.30
46378;DHT22;32083;47.360;9.650;2022-09-09T12:44:59;19.90;90.30
46378;DHT22;32083;47.360;9.650;2022-09-09T12:47:38;20.10;90.20
46378;DHT22;32083;47.360;9.650;2022-09-09T12:50:49;20.20;88.40
46378;DHT22;32083;47.360;9.650;2022-09-09T12:53:26;20.10;90.50
46378;DHT22;32083;47.360;9.650;2022-09-09T12:56:18;20.00;90.20
46378;DHT22;32083;47.360;9.650;2022-09-09T12:58:46;19.90;89.50
46378;DHT22;32083;47.360;9.650;2022-09-09T13:01:26;19.90;90.90
46378;DHT22;32083;47.360;9.650;2022-09-09T13:03:53;19.90;89.10
46378;DHT22;32083;47.360;9.650;2022-09-09T13:06:26;19.80;87.90
46378;DHT22;32083;47.360;9.650;2022-09-09T13:08:54;19.80;90.90
46378;DHT22;32083;47.360;9.650;2022-09-09T13:11:25;19.80;89.80
46378;DHT22;32083;47.360;9.650;2022-09-09T13:13:56;19.80;88.90
46378;DHT22;32083;47.360;9.650;2022-09-09T13:18:51;19.80;85.70
46378;DHT22;32083;47.360;9.650;2022-09-09T13:21:18;19.70;87.00
46378;DHT22;32083;47.360;9.650;2022-09-09T13:23:49;19.90;86.50
46378;DHT22;32083;47.360;9.650;2022-09-09T13:26:26;20.00;87.10
46378;DHT22;32083;47.360;9.650;2022-09-09T13:29:09;20.20;87.00
46378;DHT22;32083;47.360;9.650;2022-09-09T13:31:40;20.40;84.30
46378;DHT22;32083;47.360;9.650;2022-09-09T13:34:14;20.40;82.80
46378;DHT22;32083;47.360;9.650;2022-09-09T13:36:40;20.70;84.10
46378;DHT22;32083;47.360;9.650;2022-09-09T13:39:15;20.50;82.90
46378;DHT22;32083;47.360;9.650;2022-09-09T13:41:44;20.60;84.60
46378;DHT22;32083;47.360;9.650;2022-09-09T13:44:27;20.80;81.70
46378;DHT22;32083;47.360;9.650;2022-09-09T13:47:05;20.90;78.80
46378;DHT22;32083;47.360;9.650;2022-09-09T13:49:32;21.00;81.40
46378;DHT22;32083;47.360;9.650;2022-09-09T13:52:12;20.90;81.30
46378;DHT22;32083;47.360;9.650;2022-09-09T13:54:40;21.00;79.40
46378;DHT22;32083;47.360;9.650;2022-09-09T13:57:17;21.10;80.80
46378;DHT22;32083;47.360;9.650;2022-09-09T13:59:45;20.90;77.90
46378;DHT22;32083;47.360;9.650;2022-09-09T14:02:11;21.00;79.80
46378;DHT22;32083;47.360;9.650;2022-09-09T14:04:37;21.10;79.10
46378;DHT22;32083;47.360;9.650;2022-09-09T14:07:03;21.30;81.10
46378;DHT22;32083;47.360;9.650;2022-09-09T14:09:29;21.20;78.50
46378;DHT22;32083;47.360;9.650;2022-09-09T14:11:55;21.30;78.50
46378;DHT22;32083;47.360;9.650;2022-09-09T14:14:21;21.30;77.30
46378;DHT22;32083;47.360;9.650;2022-09-09T14:16:47;21.30;80.40
46378;DHT22;32083;47.360;9.650;2022-09-09T14:19:13;21.40;77.30
46378;DHT22;32083;47.360;9.650;2022-09-09T14:21:39;21.40;78.50
46378;DHT22;32083;47.360;9.650;2022-09-09T14:24:05;21.30;78.30
46378;DHT22;32083;47.360;9.650;2022-09-09T14:26:32;21.30;75.40
46378;DHT22;32083;47.360;9.650;2022-09-09T14:28:58;21.30;77.70
46378;DHT22;32083;47.360;9.650;2022-09-09T14:31:24;21.40;77.60
46378;DHT22;32083;47.360;9.650;2022-09-09T14:33:51;21.40;77.60
46378;DHT22;32083;47.360;9.650;2022-09-09T14:36:17;21.30;76.00
46378;DHT22;32083;47.360;9.650;2022-09-09T14:38:43;21.30;77.80
46378;DHT22;32083;47.360;9.650;2022-09-09T14:41:17;21.20;77.80
46378;DHT22;32083;47.360;9.650;2022-09-09T14:43:44;21.30;79.20
46378;DHT22;32083;47.360;9.650;2022-09-09T14:46:13;21.20;80.40
46378;DHT22;32083;47.360;9.650;2022-09-09T14:48:40;21.30;79.50
46378;DHT22;32083;47.360;9.650;2022-09-09T14:51:11;21.40;82.00
46378;DHT22;32083;47.360;9.650;2022-09-09T14:53:39;21.60;79.40
46378;DHT22;32083;47.360;9.650;2022-09-09T14:56:07;21.70;80.70
46378;DHT22;32083;47.360;9.650;2022-09-09T14:58:34;21.80;80.10
46378;DHT22;32083;47.360;9.650;2022-09-09T15:01:12;21.80;77.80
46378;DHT22;32083;47.360;9.650;2022-09-09T15:03:39;21.80;78.70
46378;DHT22;32083;47.360;9.650;2022-09-09T15:06:08;21.90;78.70
46378;DHT22;32083;47.360;9.650;2022-09-09T15:08:40;21.90;77.60
46378;DHT22;32083;47.360;9.650;2022-09-09T15:11:07;21.80;78.50
46378;DHT22;32083;47.360;9.650;2022-09-09T15:13:38;21.90;80.10
46378;DHT22;32083;47.360;9.650;2022-09-09T15:18:34;21.90;82.20
46378;DHT22;32083;47.360;9.650;2022-09-09T15:21:04;21.80;81.60
46378;DHT22;32083;47.360;9.650;2022-09-09T15:23:35;21.70;81.70
46378;DHT22;32083;47.360;9.650;2022-09-09T15:26:02;21.80;83.80
46378;DHT22;32083;47.360;9.650;2022-09-09T15:28:28;22.00;83.10
46378;DHT22;32083;47.360;9.650;2022-09-09T15:30:54;22.10;82.80
46378;DHT22;32083;47.360;9.650;2022-09-09T15:33:21;22.10;81.30
46378;DHT22;32083;47.360;9.650;2022-09-09T15:35:48;22.10;82.10
46378;DHT22;32083;47.360;9.650;2022-09-09T15:38:15;22.10;83.10
46378;DHT22;32083;47.360;9.650;2022-09-09T15:40:43;22.10;82.40
46378;DHT22;32083;47.360;9.650;2022-09-09T15:43:09;22.10;82.30
46378;DHT22;32083;47.360;9.650;2022-09-09T15:45:36;22.10;78.70
46378;DHT22;32083;47.360;9.650;2022-09-09T15:48:03;22.20;80.60
46378;DHT22;32083;47.360;9.650;2022-09-09T15:50:30;22.20;79.80
46378;DHT22;32083;47.360;9.650;2022-09-09T15:52:59;22.20;82.30
46378;DHT22;32083;47.360;9.650;2022-09-09T15:55:26;22.30;83.30
46378;DHT22;32083;47.360;9.650;2022-09-09T15:57:52;22.20;80.80
46378;DHT22;32083;47.360;9.650;2022-09-09T16:00:19;22.20;82.00
46378;DHT22;32083;47.360;9.650;2022-09-09T16:02:48;22.10;82.80
46378;DHT22;32083;47.360;9.650;2022-09-09T16:05:14;22.10;84.80
46378;DHT22;32083;47.360;9.650;2022-09-09T16:07:41;22.10;83.10
46378;DHT22;32083;47.360;9.650;2022-09-09T16:10:09;22.10;82.20
46378;DHT22;32083;47.360;9.650;2022-09-09T16:12:35;22.00;83.30
46378;DHT22;32083;47.360;9.650;2022-09-09T16:15:01;21.90;84.50
46378;DHT22;32083;47.360;9.650;2022-09-09T16:17:27;21.80;84.90
46378;DHT22;32083;47.360;9.650;2022-09-09T16:19:53;21.80;83.20
46378;DHT22;32083;47.360;9.650;2022-09-09T16:22:20;21.60;82.30
46378;DHT22;32083;47.360;9.650;2022-09-09T16:24:46;21.50;84.20
46378;DHT22;32083;47.360;9.650;2022-09-09T16:27:12;21.40;83.30
46378;DHT22;32083;47.360;9.650;2022-09-09T16:29:38;21.30;84.90
46378;DHT22;32083;47.360;9.650;2022-09-09T16:32:04;21.20;85.10
46378;DHT22;32083;47.360;9.650;2022-09-09T16:34:30;21.10;85.20
46378;DHT22;32083;47.360;9.650;2022-09-09T16:36:56;21.10;86.50
46378;DHT22;32083;47.360;9.650;2022-09-09T16:39:22;21.10;87.30
46378;DHT22;32083;47.360;9.650;2022-09-09T16:41:48;21.10;86.50
46378;DHT22;32083;47.360;9.650;2022-09-09T16:44:16;21.00;86.90
46378;DHT22;32083;47.360;9.650;2022-09-09T16:46:44;21.00;87.70
46378;DHT22;32083;47.360;9.650;2022-09-09T16:49:13;20.90;88.00
46378;DHT22;32083;47.360;9.650;2022-09-09T16:51:46;20.80;88.00
46378;DHT22;32083;47.360;9.650;2022-09-09T16:54:16;20.80;88.50
46378;DHT22;32083;47.360;9.650;2022-09-09T16:56:44;20.70;88.90
46378;DHT22;32083;47.360;9.650;2022-09-09T16:59:19;20.60;88.60
46378;DHT22;32083;47.360;9.650;2022-09-09T17:01:47;20.60;88.60
46378;DHT22;32083;47.360;9.650;2022-09-09T17:04:15;20.60;88.70
46378;DHT22;32083;47.360;9.650;2022-09-09T17:06:47;20.50;89.20
46378;DHT22;32083;47.360;9.650;2022-09-09T17:09:15;20.50;89.30
46378;DHT22;32083;47.360;9.650;2022-09-09T17:11:41;20.40;89.90
46378;DHT22;32083;47.360;9.650;2022-09-09T17:14:10;20.30;89.90
46378;DHT22;32083;47.360;9.650;2022-09-09T17:16:36;20.20;89.50
46378;DHT22;32083;47.360;9.650;2022-09-09T17:19:05;20.10;89.90
46378;DHT22;32083;47.360;9.650;2022-09-09T17:21:32;20.00;90.60
46378;DHT22;32083;47.360;9.650;2022-09-09T17:23:58;19.90;90.60
46378;DHT22;32083;47.360;9.650;2022-09-09T17:26:27;19.90;90.60
46378;DHT22;32083;47.360;9.650;2022-09-09T17:28:53;19.90;91.10
46378;DHT22;32083;47.360;9.650;2022-09-09T17:31:21;19.80;91.10
46378;DHT22;32083;47.360;9.650;2022-09-09T17:33:50;19.80;91.00
46378;DHT22;32083;47.360;9.650;2022-09-09T17:36:27;19.70;91.20
46378;DHT22;32083;47.360;9.650;2022-09-09T17:38:54;19.70;91.00
46378;DHT22;32083;47.360;9.650;2022-09-09T17:41:26;19.70;91.50
46378;DHT22;32083;47.360;9.650;2022-09-09T17:43:53;19.70;91.20
46378;DHT22;32083;47.360;9.650;2022-09-09T17:46:21;19.60;91.20
46378;DHT22;32083;47.360;9.650;2022-09-09T17:48:48;19.60;91.90
46378;DHT22;32083;47.360;9.650;2022-09-09T17:51:18;19.50;92.00
46378;DHT22;32083;47.360;9.650;2022-09-09T17:53:50;19.40;92.20
46378;DHT22;32083;47.360;9.650;2022-09-09T17:56:19;19.40;92.00
46378;DHT22;32083;47.360;9.650;2022-09-09T17:58:49;19.40;92.40
46378;DHT22;32083;47.360;9.650;2022-09-09T18:01:21;19.30;92.20
46378;DHT22;32083;47.360;9.650;2022-09-09T18:03:49;19.30;92.10
46378;DHT22;32083;47.360;9.650;2022-09-09T18:06:25;19.20;92.10
46378;DHT22;32083;47.360;9.650;2022-09-09T18:08:58;19.10;92.10
46378;DHT22;32083;47.360;9.650;2022-09-09T18:11:31;19.10;92.20
46378;DHT22;32083;47.360;9.650;2022-09-09T18:13:59;19.00;92.40
46378;DHT22;32083;47.360;9.650;2022-09-09T18:16:27;19.00;92.30
46378;DHT22;32083;47.360;9.650;2022-09-09T18:18:57;18.90;92.40
46378;DHT22;32083;47.360;9.650;2022-09-09T18:21:24;18.90;92.80
46378;DHT22;32083;47.360;9.650;2022-09-09T18:23:52;18.80;92.50
46378;DHT22;32083;47.360;9.650;2022-09-09T18:26:24;18.80;92.90
46378;DHT22;32083;47.360;9.650;2022-09-09T18:29:03;18.80;92.80
46378;DHT22;32083;47.360;9.650;2022-09-09T18:31:30;18.70;92.60
46378;DHT22;32083;47.360;9.650;2022-09-09T18:33:59;18.60;92.60
46378;DHT22;32083;47.360;9.650;2022-09-09T18:36:28;18.60;92.90
46378;DHT22;32083;47.360;9.650;2022-09-09T18:38:58;18.50;93.10
46378;DHT22;32083;47.360;9.650;2022-09-09T18:43:56;18.60;93.00
46378;DHT22;32083;47.360;9.650;2022-09-09T18:46:24;18.50;93.20
46378;DHT22;32083;47.360;9.650;2022-09-09T18:48:50;18.60;93.00
46378;DHT22;32083;47.360;9.650;2022-09-09T18:51:19;18.50;93.00
46378;DHT22;32083;47.360;9.650;2022-09-09T18:53:53;18.50;92.80
46378;DHT22;32083;47.360;9.650;2022-09-09T18:56:20;18.50;92.90
46378;DHT22;32083;47.360;9.650;2022-09-09T18:58:55;18.40;93.00
46378;DHT22;32083;47.360;9.650;2022-09-09T19:01:22;18.40;92.90
46378;DHT22;32083;47.360;9.650;2022-09-09T19:03:49;18.40;92.90
46378;DHT22;32083;47.360;9.650;2022-09-09T19:06:18;18.50;92.80
46378;DHT22;32083;47.360;9.650;2022-09-09T19:08:45;18.40;92.60
46378;DHT22;32083;47.360;9.650;2022-09-09T19:11:17;18.50;92.50
46378;DHT22;32083;47.360;9.650;2022-09-09T19:13:52;18.50;92.50
46378;DHT22;32083;47.360;9.650;2022-09-09T19:16:19;18.40;91.90
46378;DHT22;32083;47.360;9.650;2022-09-09T19:18:45;18.50;91.70
46378;DHT22;32083;47.360;9.650;2022-09-09T19:21:23;18.50;92.00
46378;DHT22;32083;47.360;9.650;2022-09-09T19:23:55;18.50;91.10
46378;DHT22;32083;47.360;9.650;2022-09-09T19:26:25;18.50;91.50
46378;DHT22;32083;47.360;9.650;2022-09-09T19:28:51;18.50;91.60
46378;DHT22;32083;47.360;9.650;2022-09-09T19:31:19;18.50;91.10
46378;DHT22;32083;47.360;9.650;2022-09-09T19:33:46;18.50;91.10
46378;DHT22;32083;47.360;9.650;2022-09-09T19:36:15;18.40;91.10
46378;DHT22;32083;47.360;9.650;2022-09-09T19:38:44;18.40;91.20
46378;DHT22;32083;47.360;9.650;2022-09-09T19:41:19;18.40;91.20
46378;DHT22;32083;47.360;9.650;2022-09-09T19:43:48;18.40;90.90
46378;DHT22;32083;47.360;9.650;2022-09-09T19:46:16;18.30;90.90
46378;DHT22;32083;47.360;9.650;2022-09-09T19:48:45;18.30;90.80
46378;DHT22;32083;47.360;9.650;2022-09-09T19:51:17;18.30;91.40
46378;DHT22;32083;47.360;9.650;2022-09-09T19:53:49;18.30;91.10
46378;DHT22;32083;47.360;9.650;2022-09-09T19:56:16;18.20;91.10
46378;DHT22;32083;47.360;9.650;2022-09-09T19:58:45;18.20;91.80
46378;DHT22;32083;47.360;9.650;2022-09-09T20:03:41;18.20;91.40
46378;DHT22;32083;47.360;9.650;2022-09-09T20:06:11;18.20;91.20
46378;DHT22;32083;47.360;9.650;2022-09-09T20:08:38;18.10;91.00
46378;DHT22;32083;47.360;9.650;2022-09-09T20:11:05;18.20;91.70
46378;DHT22;32083;47.360;9.650;2022-09-09T20:13:34;18.20;91.60
46378;DHT22;32083;47.360;9.650;2022-09-09T20:16:03;18.10;91.70
46378;DHT22;32083;47.360;9.650;2022-09-09T20:18:32;18.10;91.70
46378;DHT22;32083;47.360;9.650;2022-09-09T20:21:03;18.00;90.90
46378;DHT22;32083;47.360;9.650;2022-09-09T20:23:30;17.90;92.20
46378;DHT22;32083;47.360;9.650;2022-09-09T20:26:00;17.70;92.50
46378;DHT22;32083;47.360;9.650;2022-09-09T20:28:28;17.80;92.70
46378;DHT22;32083;47.360;9.650;2022-09-09T20:30:54;17.90;92.80
46378;DHT22;32083;47.360;9.650;2022-09-09T20:33:20;17.90;93.40
46378;DHT22;32083;47.360;9.650;2022-09-09T20:35:47;17.90;93.50
46378;DHT22;32083;47.360;9.650;2022-09-09T20:38:13;17.80;93.50
46378;DHT22;32083;47.360;9.650;2022-09-09T20:40:40;17.80;92.90
46378;DHT22;32083;47.360;9.650;2022-09-09T20:43:10;17.90;92.60
46378;DHT22;32083;47.360;9.650;2022-09-09T20:45:39;17.90;92.60
46378;DHT22;32083;47.360;9.650;2022-09-09T20:48:08;17.90;92.80
46378;DHT22;32083;47.360;9.650;2022-09-09T20:50:35;17.80;92.50
46378;DHT22;32083;47.360;9.650;2022-09-09T20:53:02;17.70;92.50
46378;DHT22;32083;47.360;9.650;2022-09-09T20:55:30;17.60;92.70
46378;DHT22;32083;47.360;9.650;2022-09-09T20:57:57;17.60;93.00
46378;DHT22;32083;47.360;9.650;2022-09-09T21:00:23;17.50;93.10
46378;DHT22;32083;47.360;9.650;2022-09-09T21:02:49;17.50;93.20
46378;DHT22;32083;47.360;9.650;2022-09-09T21:05:15;17.50;92.70
46378;DHT22;32083;47.360;9.650;2022-09-09T21:07:41;17.40;92.80
46378;DHT22;32083;47.360;9.650;2022-09-09T21:10:08;17.40;93.10
46378;DHT22;32083;47.360;9.650;2022-09-09T21:12:35;17.20;93.20
46378;DHT22;32083;47.360;9.650;2022-09-09T21:15:01;17.20;93.40
46378;DHT22;32083;47.360;9.650;2022-09-09T21:17:27;17.20;93.40
46378;DHT22;32083;47.360;9.650;2022-09-09T21:19:53;17.20;93.80
46378;DHT22;32083;47.360;9.650;2022-09-09T21:22:19;17.30;93.80
46378;DHT22;32083;47.360;9.650;2022-09-09T21:24:45;17.30;93.80
46378;DHT22;32083;47.360;9.650;2022-09-09T21:27:11;17.30;93.60
46378;DHT22;32083;47.360;9.650;2022-09-09T21:29:37;17.20;93.80
46378;DHT22;32083;47.360;9.650;2022-09-09T21:32:04;17.10;93.70
46378;DHT22;32083;47.360;9.650;2022-09-09T21:34:30;17.10;93.80